Time;durP1;ratioP1;P1;durP2;ratioP2;P2;SDS_P1;SDS_P2;PMS_P1;PMS_P2;Temp;Humidity;BMP_temperature;BMP_pressure;BME280_temperature;BME280_humidity;BME280_pressure;Samples;Min_cycle;Max_cycle;Signal;HPM_P1;HPM_P2
2022/03/29 00:00:44;;;;;;;41.72;23.60;;;;;;;;;;4949821;28;101274;-62
2022/03/29 00:03:10;;;;;;;31.02;22.75;;;;;;;;;;4937653;28;98631;-62
2022/03/29 00:05:38;;;;;;;34.05;23.27;;;;;;;;;;4935178;28;99264;-62
2022/03/29 00:08:04;;;;;;;34.13;22.55;;;;;;;;;;4932349;28;99001;-62
2022/03/29 00:10:31;;;;;;;33.47;23.08;;;;;;;;;;4932484;28;100151;-62
2022/03/29 00:12:57;;;;;;;36.50;23.73;;;;;;;;;;4932173;28;99538;-62
2022/03/29 00:15:24;;;;;;;38.78;24.40;;;;;;;;;;4936647;28;100037;-63
2022/03/29 00:17:50;;;;;;;37.88;24.35;;;;;;;;;;4952346;28;100091;-63
2022/03/29 00:20:17;;;;;;;38.03;22.88;;;;;;;;;;4951020;28;98546;-63
2022/03/29 00:22:44;;;;;;;40.50;24.13;;;;;;;;;;4951586;28;98572;-63
2022/03/29 00:25:10;;;;;;;35.70;24.10;;;;;;;;;;4950977;28;99242;-63
2022/03/29 00:27:37;;;;;;;36.22;24.65;;;;;;;;;;4954554;28;99532;-63
2022/03/29 00:30:04;;;;;;;35.22;24.35;;;;;;;;;;4950859;28;100307;-63
2022/03/29 00:32:30;;;;;;;37.13;25.23;;;;;;;;;;4951152;28;99638;-62
2022/03/29 00:34:57;;;;;;;36.00;24.40;;;;;;;;;;4951127;28;98520;-63
2022/03/29 00:37:23;;;;;;;36.92;24.23;;;;;;;;;;4951531;28;99387;-63
2022/03/29 00:39:49;;;;;;;31.88;24.38;;;;;;;;;;4936291;28;99484;-63
2022/03/29 00:42:16;;;;;;;41.00;24.92;;;;;;;;;;4932685;28;97836;-63
2022/03/29 00:44:42;;;;;;;35.78;25.00;;;;;;;;;;4946535;28;98520;-62
2022/03/29 00:47:08;;;;;;;43.67;25.90;;;;;;;;;;4949966;28;99570;-63
2022/03/29 00:49:35;;;;;;;38.38;25.70;;;;;;;;;;4953538;28;99406;-62
2022/03/29 00:52:02;;;;;;;33.83;22.60;;;;;;;;;;4950497;28;99494;-64
2022/03/29 00:54:30;;;;;;;37.03;24.20;;;;;;;;;;4950122;28;98929;-62
2022/03/29 00:56:59;;;;;;;39.00;25.50;;;;;;;;;;4943385;28;99274;-63
2022/03/29 00:59:26;;;;;;;38.93;25.03;;;;;;;;;;4946046;28;100616;-63
2022/03/29 01:01:53;;;;;;;37.42;25.60;;;;;;;;;;4941192;28;98641;-62
2022/03/29 01:04:23;;;;;;;39.70;25.27;;;;;;;;;;4932080;28;100416;-62
2022/03/29 01:06:49;;;;;;;36.53;25.88;;;;;;;;;;4931095;28;98923;-63
2022/03/29 01:09:15;;;;;;;38.15;26.05;;;;;;;;;;4934750;28;98716;-63
2022/03/29 01:11:42;;;;;;;36.92;26.60;;;;;;;;;;4937539;28;99274;-63
2022/03/29 01:14:08;;;;;;;38.22;27.42;;;;;;;;;;4949719;28;99324;-63
2022/03/29 01:19:20;;;;;;;46.30;26.42;;;;;;;;;;4950857;28;100546;-63
2022/03/29 01:21:51;;;;;;;49.92;27.02;;;;;;;;;;4949549;28;98730;-62
2022/03/29 01:24:18;;;;;;;41.88;25.52;;;;;;;;;;4950957;28;100100;-62
2022/03/29 01:26:46;;;;;;;43.53;26.42;;;;;;;;;;4950408;28;99534;-62
2022/03/29 01:29:12;;;;;;;59.78;26.02;;;;;;;;;;4948758;28;98866;-63
2022/03/29 01:31:39;;;;;;;58.67;27.88;;;;;;;;;;4934404;28;99162;-63
2022/03/29 01:34:05;;;;;;;42.50;25.40;;;;;;;;;;4931194;28;98548;-63
2022/03/29 01:36:32;;;;;;;41.17;26.20;;;;;;;;;;4931211;28;99344;-62
2022/03/29 01:38:59;;;;;;;46.17;26.25;;;;;;;;;;4930364;28;100297;-63
2022/03/29 01:41:28;;;;;;;51.55;27.10;;;;;;;;;;4931125;28;98516;-63
2022/03/29 01:43:54;;;;;;;39.92;26.30;;;;;;;;;;4942579;28;100012;-62
2022/03/29 01:46:21;;;;;;;45.05;27.20;;;;;;;;;;4945623;28;100522;-63
2022/03/29 01:48:48;;;;;;;42.53;26.08;;;;;;;;;;4931089;28;98520;-63
2022/03/29 01:51:14;;;;;;;53.08;26.02;;;;;;;;;;4930376;28;99120;-63
2022/03/29 01:53:41;;;;;;;48.47;24.30;;;;;;;;;;4947589;28;99495;-63
2022/03/29 01:56:07;;;;;;;39.47;23.95;;;;;;;;;;4950396;28;99417;-63
2022/03/29 01:58:33;;;;;;;40.17;24.63;;;;;;;;;;4949977;28;100533;-62
2022/03/29 02:01:00;;;;;;;40.40;25.67;;;;;;;;;;4950468;28;98560;-63
2022/03/29 02:03:26;;;;;;;45.60;24.92;;;;;;;;;;4949564;28;100305;-63
2022/03/29 02:05:53;;;;;;;47.72;25.00;;;;;;;;;;4949093;28;99801;-63
2022/03/29 02:08:20;;;;;;;38.35;25.45;;;;;;;;;;4949197;28;98550;-62
2022/03/29 02:10:46;;;;;;;37.95;25.10;;;;;;;;;;4949659;28;99375;-63
2022/03/29 02:13:12;;;;;;;56.50;24.73;;;;;;;;;;4948959;28;99551;-63
2022/03/29 02:15:39;;;;;;;48.40;24.65;;;;;;;;;;4952242;28;98539;-63
2022/03/29 02:18:06;;;;;;;41.55;25.08;;;;;;;;;;4948815;28;99557;-63
2022/03/29 02:20:32;;;;;;;124.72;24.73;;;;;;;;;;4950424;28;97809;-63
2022/03/29 02:23:06;;;;;;;57.03;24.48;;;;;;;;;;4940069;28;98591;-62
2022/03/29 02:25:33;;;;;;;50.90;24.92;;;;;;;;;;4949297;28;100278;-63
2022/03/29 02:27:59;;;;;;;63.15;25.23;;;;;;;;;;4947724;28;99216;-62
2022/03/29 02:30:26;;;;;;;43.25;24.58;;;;;;;;;;4940212;28;99973;-62
2022/03/29 02:32:53;;;;;;;66.63;25.42;;;;;;;;;;4949707;28;99433;-63
2022/03/29 02:35:19;;;;;;;50.25;23.05;;;;;;;;;;4949662;28;98835;-63
2022/03/29 02:37:45;;;;;;;65.95;24.40;;;;;;;;;;4952978;28;99619;-63
2022/03/29 02:40:13;;;;;;;37.92;23.13;;;;;;;;;;4947768;28;98589;-62
2022/03/29 02:42:43;;;;;;;55.97;24.55;;;;;;;;;;4929153;28;99358;-62
2022/03/29 02:45:17;;;;;;;45.38;24.88;;;;;;;;;;4932980;28;98822;-63
2022/03/29 02:47:44;;;;;;;42.40;24.48;;;;;;;;;;4949707;28;98738;-63
2022/03/29 02:50:10;;;;;;;40.78;23.65;;;;;;;;;;4949656;28;99370;-63
2022/03/29 02:52:50;;;;;;;44.10;24.25;;;;;;;;;;4948839;28;100455;-63
2022/03/29 02:55:20;;;;;;;73.47;24.00;;;;;;;;;;4949458;28;98492;-62
2022/03/29 02:57:47;;;;;;;73.65;25.10;;;;;;;;;;4949510;28;99438;-63
2022/03/29 03:00:15;;;;;;;40.90;23.17;;;;;;;;;;4952599;28;100768;-62
2022/03/29 03:02:43;;;;;;;51.22;24.88;;;;;;;;;;4949534;28;99471;-64
2022/03/29 03:05:10;;;;;;;95.45;23.30;;;;;;;;;;4951995;28;100475;-63
2022/03/29 03:07:37;;;;;;;50.33;22.63;;;;;;;;;;4952850;28;98589;-63
2022/03/29 03:10:04;;;;;;;58.33;22.48;;;;;;;;;;4953261;28;100443;-63
2022/03/29 03:12:38;;;;;;;68.55;24.45;;;;;;;;;;4952721;28;99543;-63
2022/03/29 03:15:05;;;;;;;44.33;23.83;;;;;;;;;;4951996;28;98869;-64
2022/03/29 03:17:31;;;;;;;80.22;24.05;;;;;;;;;;4951446;28;99383;-63
2022/03/29 03:19:58;;;;;;;108.75;23.90;;;;;;;;;;4955449;28;99632;-63
2022/03/29 03:22:24;;;;;;;64.32;23.13;;;;;;;;;;4953093;28;100377;-63
2022/03/29 03:24:51;;;;;;;67.22;23.60;;;;;;;;;;4951867;28;100374;-63
2022/03/29 03:27:17;;;;;;;47.70;23.75;;;;;;;;;;4952541;28;98589;-63
2022/03/29 03:29:44;;;;;;;66.22;23.88;;;;;;;;;;4947755;28;99600;-64
2022/03/29 03:32:11;;;;;;;44.03;24.35;;;;;;;;;;4940726;28;99563;-63
2022/03/29 03:34:37;;;;;;;56.63;23.95;;;;;;;;;;4951350;28;97828;-63
2022/03/29 03:37:04;;;;;;;88.45;24.55;;;;;;;;;;4952107;28;98925;-63
2022/03/29 03:39:32;;;;;;;57.53;23.77;;;;;;;;;;4950557;28;100614;-63
2022/03/29 03:41:59;;;;;;;72.32;25.52;;;;;;;;;;4938066;28;99635;-64
2022/03/29 03:44:25;;;;;;;96.82;24.50;;;;;;;;;;4943310;28;99318;-63
2022/03/29 03:46:51;;;;;;;99.72;26.42;;;;;;;;;;4949257;28;98976;-62
2022/03/29 03:49:18;;;;;;;77.35;24.83;;;;;;;;;;4951961;28;99240;-64
2022/03/29 03:51:44;;;;;;;65.10;24.13;;;;;;;;;;4951531;28;99993;-63
2022/03/29 03:54:10;;;;;;;70.75;24.70;;;;;;;;;;4951563;28;98760;-63
2022/03/29 03:56:36;;;;;;;66.38;24.00;;;;;;;;;;4951824;28;99270;-63
2022/03/29 03:59:03;;;;;;;89.63;24.40;;;;;;;;;;4951547;28;99147;-64
2022/03/29 04:01:29;;;;;;;72.97;23.42;;;;;;;;;;4950821;28;98636;-63
2022/03/29 04:03:56;;;;;;;76.30;23.73;;;;;;;;;;4955007;28;100079;-63
2022/03/29 04:06:22;;;;;;;46.90;23.20;;;;;;;;;;4950637;28;99304;-64
2022/03/29 04:08:52;;;;;;;115.75;23.55;;;;;;;;;;4951315;28;99975;-63
2022/03/29 04:11:18;;;;;;;70.15;23.17;;;;;;;;;;4950884;28;100645;-63
2022/03/29 04:13:45;;;;;;;74.07;22.83;;;;;;;;;;4950816;28;98932;-64
2022/03/29 04:16:11;;;;;;;58.60;22.50;;;;;;;;;;4951098;28;99455;-63
2022/03/29 04:18:37;;;;;;;61.75;22.65;;;;;;;;;;4951208;28;101041;-63
2022/03/29 04:21:05;;;;;;;45.25;22.17;;;;;;;;;;4951143;28;100362;-63
2022/03/29 04:23:31;;;;;;;57.78;22.23;;;;;;;;;;4952048;28;100607;-63
2022/03/29 04:25:58;;;;;;;60.72;22.48;;;;;;;;;;4953988;28;99494;-63
2022/03/29 04:28:24;;;;;;;44.55;22.98;;;;;;;;;;4950148;28;99588;-63
2022/03/29 04:30:55;;;;;;;49.25;24.27;;;;;;;;;;4949938;28;100235;-63
2022/03/29 04:33:22;;;;;;;36.20;21.73;;;;;;;;;;4951713;28;98695;-63
2022/03/29 04:35:48;;;;;;;39.55;21.65;;;;;;;;;;4950598;28;99482;-63
2022/03/29 04:38:14;;;;;;;40.58;21.75;;;;;;;;;;4951220;28;100600;-63
2022/03/29 04:40:40;;;;;;;41.58;22.77;;;;;;;;;;4951329;28;98582;-63
2022/03/29 04:43:07;;;;;;;35.83;21.52;;;;;;;;;;4951007;28;99287;-64
2022/03/29 04:45:33;;;;;;;82.63;23.60;;;;;;;;;;4950559;28;99568;-63
2022/03/29 04:47:59;;;;;;;41.95;23.13;;;;;;;;;;4954766;28;98115;-63
2022/03/29 04:50:26;;;;;;;48.95;24.70;;;;;;;;;;4951241;28;100570;-63
2022/03/29 04:52:52;;;;;;;39.30;22.55;;;;;;;;;;4951043;28;98680;-63
2022/03/29 04:55:19;;;;;;;33.45;22.40;;;;;;;;;;4949938;28;100351;-63
2022/03/29 04:57:47;;;;;;;42.05;22.83;;;;;;;;;;4950832;28;99546;-63
2022/03/29 05:00:14;;;;;;;38.28;22.73;;;;;;;;;;4950030;28;98801;-63
2022/03/29 05:02:41;;;;;;;44.15;22.95;;;;;;;;;;4950215;28;99466;-62
2022/03/29 05:05:09;;;;;;;53.83;22.98;;;;;;;;;;4950203;28;99516;-63
2022/03/29 05:07:36;;;;;;;46.50;23.48;;;;;;;;;;4950432;28;98559;-62
2022/03/29 05:10:03;;;;;;;37.03;24.13;;;;;;;;;;4953548;28;100173;-63
2022/03/29 05:12:29;;;;;;;32.90;23.35;;;;;;;;;;4950465;28;97990;-63
2022/03/29 05:14:58;;;;;;;44.38;23.77;;;;;;;;;;4950429;28;98588;-63
2022/03/29 05:17:24;;;;;;;41.08;23.05;;;;;;;;;;4943618;28;99607;-63
2022/03/29 05:19:51;;;;;;;33.35;22.70;;;;;;;;;;4949923;28;99402;-62
2022/03/29 05:22:17;;;;;;;36.40;23.08;;;;;;;;;;4950762;28;100036;-63
2022/03/29 05:24:43;;;;;;;33.95;22.58;;;;;;;;;;4949924;28;100850;-63
2022/03/29 05:27:10;;;;;;;38.15;24.02;;;;;;;;;;4948552;28;98639;-63
2022/03/29 05:29:36;;;;;;;46.22;23.00;;;;;;;;;;4953056;28;99256;-64
2022/03/29 05:32:02;;;;;;;38.38;25.17;;;;;;;;;;4932179;28;100490;-64
2022/03/29 05:34:29;;;;;;;35.72;23.67;;;;;;;;;;4949928;28;99129;-64
2022/03/29 05:36:56;;;;;;;42.42;24.63;;;;;;;;;;4950358;28;98778;-64
2022/03/29 05:39:22;;;;;;;49.13;24.98;;;;;;;;;;4949660;28;98691;-64
2022/03/29 05:41:48;;;;;;;62.15;25.15;;;;;;;;;;4950008;28;99333;-64
2022/03/29 05:44:14;;;;;;;40.72;24.60;;;;;;;;;;4948971;28;100646;-64
2022/03/29 05:49:27;;;;;;;39.80;25.48;;;;;;;;;;4946342;28;99198;-65
2022/03/29 05:51:53;;;;;;;45.38;25.65;;;;;;;;;;4933222;28;99888;-64
2022/03/29 05:54:20;;;;;;;38.28;24.88;;;;;;;;;;4940774;28;100144;-63
2022/03/29 05:56:46;;;;;;;66.63;24.77;;;;;;;;;;4949819;28;100144;-63
2022/03/29 05:59:12;;;;;;;45.05;25.08;;;;;;;;;;4950035;28;98570;-63
2022/03/29 06:01:39;;;;;;;47.60;25.60;;;;;;;;;;4949522;28;99168;-64
2022/03/29 06:04:07;;;;;;;43.35;25.30;;;;;;;;;;4948956;28;100457;-64
2022/03/29 06:06:34;;;;;;;43.17;26.17;;;;;;;;;;4949546;28;98592;-64
2022/03/29 06:09:01;;;;;;;43.42;25.33;;;;;;;;;;4949210;28;99264;-64
2022/03/29 06:11:27;;;;;;;40.53;24.65;;;;;;;;;;4949618;28;99566;-64
2022/03/29 06:13:53;;;;;;;38.20;23.55;;;;;;;;;;4952658;28;98541;-64
2022/03/29 06:16:20;;;;;;;38.25;24.83;;;;;;;;;;4949345;28;99552;-64
2022/03/29 06:18:47;;;;;;;37.58;24.20;;;;;;;;;;4949823;28;98519;-63
2022/03/29 06:21:16;;;;;;;40.50;24.10;;;;;;;;;;4950145;28;100314;-64
2022/03/29 06:23:42;;;;;;;41.40;24.80;;;;;;;;;;4948251;28;99758;-63
2022/03/29 06:26:14;;;;;;;46.33;26.45;;;;;;;;;;4949850;28;98260;-63
2022/03/29 06:28:42;;;;;;;51.80;26.33;;;;;;;;;;4948061;28;98657;-63
2022/03/29 06:31:09;;;;;;;44.83;25.30;;;;;;;;;;4948007;28;100424;-63
2022/03/29 06:33:35;;;;;;;46.92;24.60;;;;;;;;;;4949182;28;99252;-64
2022/03/29 06:36:02;;;;;;;50.35;26.60;;;;;;;;;;4952780;28;100210;-64
2022/03/29 06:38:31;;;;;;;47.70;26.20;;;;;;;;;;4950523;28;98538;-63
2022/03/29 06:40:59;;;;;;;46.92;24.63;;;;;;;;;;4952269;28;99267;-63
2022/03/29 06:43:25;;;;;;;41.55;24.20;;;;;;;;;;4953073;28;100608;-63
2022/03/29 06:45:52;;;;;;;45.03;26.23;;;;;;;;;;4952769;28;98782;-63
2022/03/29 06:48:18;;;;;;;46.00;26.33;;;;;;;;;;4952566;28;100361;-63
2022/03/29 06:50:44;;;;;;;49.50;25.48;;;;;;;;;;4953354;28;99170;-65
2022/03/29 06:53:11;;;;;;;40.30;23.48;;;;;;;;;;4952969;28;98524;-65
2022/03/29 06:55:37;;;;;;;43.22;24.35;;;;;;;;;;4953350;28;99301;-65
2022/03/29 06:58:03;;;;;;;41.00;24.98;;;;;;;;;;4954899;28;100249;-65
2022/03/29 07:00:30;;;;;;;47.35;27.02;;;;;;;;;;4952592;28;101201;-66
2022/03/29 07:02:56;;;;;;;41.85;25.77;;;;;;;;;;4952478;28;99656;-65
2022/03/29 07:05:23;;;;;;;49.35;25.80;;;;;;;;;;4952094;28;98586;-66
2022/03/29 07:07:50;;;;;;;43.83;25.48;;;;;;;;;;4951044;28;99467;-65
2022/03/29 07:13:02;;;;;;;44.83;25.23;;;;;;;;;;4952701;28;98531;-65
2022/03/29 07:15:28;;;;;;;40.88;24.92;;;;;;;;;;4951523;28;98465;-65
2022/03/29 07:17:56;;;;;;;43.38;26.10;;;;;;;;;;4952064;28;100476;-65
2022/03/29 07:20:22;;;;;;;42.55;25.92;;;;;;;;;;4955631;28;98754;-66
2022/03/29 07:22:49;;;;;;;48.70;27.25;;;;;;;;;;4951252;28;100385;-66
2022/03/29 07:25:18;;;;;;;44.40;26.63;;;;;;;;;;4952528;28;98607;-66
2022/03/29 07:27:45;;;;;;;43.15;25.02;;;;;;;;;;4952621;28;100366;-66
2022/03/29 07:30:12;;;;;;;43.58;26.35;;;;;;;;;;4951256;28;99569;-65
2022/03/29 07:32:42;;;;;;;43.08;26.02;;;;;;;;;;4952150;28;98503;-65
2022/03/29 07:35:08;;;;;;;44.05;26.50;;;;;;;;;;4951350;28;100228;-65
2022/03/29 07:37:35;;;;;;;49.13;27.40;;;;;;;;;;4951699;28;99571;-64
2022/03/29 07:40:01;;;;;;;41.55;26.73;;;;;;;;;;4954225;28;97833;-64
2022/03/29 07:42:27;;;;;;;43.22;26.27;;;;;;;;;;4950463;28;99563;-64
2022/03/29 07:44:54;;;;;;;48.45;27.15;;;;;;;;;;4951678;28;98611;-64
2022/03/29 07:47:20;;;;;;;48.95;27.52;;;;;;;;;;4951709;28;99247;-64
2022/03/29 07:49:46;;;;;;;49.38;27.95;;;;;;;;;;4948829;28;100564;-64
2022/03/29 07:52:33;;;;;;;48.55;26.75;;;;;;;;;;4951404;28;98652;-64
2022/03/29 07:55:00;;;;;;;45.50;26.05;;;;;;;;;;4950625;28;99612;-64
2022/03/29 07:57:26;;;;;;;48.10;26.55;;;;;;;;;;4951623;28;99324;-64
2022/03/29 08:03:01;;;;;;;43.75;27.40;;;;;;;;;;4954152;28;99321;-64
2022/03/29 08:05:29;;;;;;;;;;;;;;;;;;4951760;28;97824;-64
2022/03/29 08:07:57;;;;;;;43.10;25.23;;;;;;;;;;4953400;28;128284;-64
2022/03/29 08:10:24;;;;;;;49.75;25.90;;;;;;;;;;4951635;28;100649;-65
2022/03/29 08:12:50;;;;;;;43.33;27.80;;;;;;;;;;4950568;28;99224;-64
2022/03/29 08:15:17;;;;;;;47.78;27.13;;;;;;;;;;4950513;28;99980;-64
2022/03/29 08:17:43;;;;;;;50.92;28.70;;;;;;;;;;4950248;28;99953;-63
2022/03/29 08:20:10;;;;;;;46.42;27.52;;;;;;;;;;4950890;28;98560;-63
2022/03/29 08:22:36;;;;;;;51.40;28.42;;;;;;;;;;4951160;28;99284;-64
2022/03/29 08:25:03;;;;;;;47.00;29.23;;;;;;;;;;4953901;28;99567;-63
2022/03/29 08:27:29;;;;;;;47.00;28.63;;;;;;;;;;4951119;28;99302;-63
2022/03/29 08:29:56;;;;;;;54.60;29.58;;;;;;;;;;4950870;28;99093;-63
2022/03/29 08:32:22;;;;;;;52.05;28.30;;;;;;;;;;4950471;28;98552;-64
2022/03/29 08:34:48;;;;;;;53.75;30.10;;;;;;;;;;4951367;28;99935;-64
2022/03/29 08:37:15;;;;;;;44.92;28.52;;;;;;;;;;4949438;28;100370;-64
2022/03/29 08:39:41;;;;;;;56.30;28.17;;;;;;;;;;4951254;28;98614;-63
2022/03/29 08:42:10;;;;;;;44.90;27.08;;;;;;;;;;4951172;28;99280;-63
2022/03/29 08:44:37;;;;;;;46.58;26.80;;;;;;;;;;4950502;28;99644;-63
2022/03/29 08:47:07;;;;;;;52.42;26.92;;;;;;;;;;4954015;28;98583;-65
2022/03/29 08:49:34;;;;;;;50.17;28.23;;;;;;;;;;4950147;28;100589;-69
2022/03/29 08:52:01;;;;;;;50.40;24.80;;;;;;;;;;4951053;28;98641;-64
2022/03/29 08:54:27;;;;;;;43.58;25.33;;;;;;;;;;4951785;28;100394;-63
2022/03/29 08:56:54;;;;;;;46.22;26.30;;;;;;;;;;4950105;28;99901;-64
2022/03/29 08:59:21;;;;;;;46.05;25.85;;;;;;;;;;4950938;28;98615;-64
2022/03/29 09:01:47;;;;;;;43.42;25.15;;;;;;;;;;4949724;28;99462;-64
2022/03/29 09:04:15;;;;;;;41.65;24.48;;;;;;;;;;4949856;28;99382;-65
2022/03/29 09:06:50;;;;;;;54.80;25.55;;;;;;;;;;4950401;28;98558;-64
2022/03/29 09:09:22;;;;;;;41.92;23.23;;;;;;;;;;4953203;28;100308;-64
2022/03/29 09:11:50;;;;;;;43.95;24.40;;;;;;;;;;4950630;28;98560;-64
2022/03/29 09:14:18;;;;;;;43.95;24.38;;;;;;;;;;4946940;28;99969;-64
2022/03/29 09:16:44;;;;;;;48.42;25.25;;;;;;;;;;4950199;28;100408;-64
2022/03/29 09:19:11;;;;;;;45.17;24.77;;;;;;;;;;4949685;28;97840;-63
2022/03/29 09:21:41;;;;;;;43.13;23.70;;;;;;;;;;4950748;28;99900;-64
2022/03/29 09:24:09;;;;;;;45.53;24.75;;;;;;;;;;4949985;28;99764;-64
2022/03/29 09:26:39;;;;;;;44.83;23.85;;;;;;;;;;4950618;28;99451;-64
2022/03/29 09:29:16;;;;;;;42.25;24.55;;;;;;;;;;4953618;28;100998;-64
2022/03/29 09:31:43;;;;;;;43.22;22.98;;;;;;;;;;4949306;28;98904;-63
2022/03/29 09:34:12;;;;;;;45.47;25.02;;;;;;;;;;4950009;28;99216;-64
2022/03/29 09:36:40;;;;;;;40.22;23.23;;;;;;;;;;4949573;28;99114;-64
2022/03/29 09:39:06;;;;;;;42.00;22.48;;;;;;;;;;4950397;28;99198;-64
2022/03/29 09:41:33;;;;;;;42.05;24.15;;;;;;;;;;4950097;28;100291;-64
2022/03/29 09:44:00;;;;;;;41.63;24.13;;;;;;;;;;4950622;28;98934;-64
2022/03/29 09:46:26;;;;;;;35.17;22.48;;;;;;;;;;4948916;28;98975;-64
2022/03/29 09:49:00;;;;;;;42.00;23.70;;;;;;;;;;4949986;28;99406;-64
2022/03/29 09:51:27;;;;;;;42.35;23.60;;;;;;;;;;4952856;28;101391;-64
2022/03/29 09:53:56;;;;;;;43.72;25.25;;;;;;;;;;4949766;28;99933;-65
2022/03/29 09:56:28;;;;;;;45.05;24.75;;;;;;;;;;4949049;28;99341;-64
2022/03/29 09:59:14;;;;;;;43.10;24.73;;;;;;;;;;4950297;28;98481;-64
2022/03/29 10:01:48;;;;;;;47.88;22.70;;;;;;;;;;4949636;28;98921;-65
2022/03/29 10:04:15;;;;;;;42.15;24.02;;;;;;;;;;4948838;28;99064;-64
2022/03/29 10:06:43;;;;;;;42.60;23.50;;;;;;;;;;4948927;28;98658;-65
2022/03/29 10:09:27;;;;;;;48.20;23.33;;;;;;;;;;4950094;28;99538;-64
2022/03/29 10:11:55;;;;;;;41.05;21.95;;;;;;;;;;4948138;28;99632;-66
2022/03/29 10:14:22;;;;;;;42.08;23.52;;;;;;;;;;4953303;28;98619;-64
2022/03/29 10:16:50;;;;;;;42.88;23.73;;;;;;;;;;4948624;28;100253;-64
2022/03/29 10:19:17;;;;;;;42.88;24.38;;;;;;;;;;4948545;28;98696;-62
2022/03/29 10:21:44;;;;;;;44.92;24.10;;;;;;;;;;4948756;28;99323;-62
2022/03/29 10:24:14;;;;;;;41.65;22.67;;;;;;;;;;4949769;28;99546;-61
2022/03/29 10:26:45;;;;;;;37.17;23.27;;;;;;;;;;4950113;28;98493;-62
2022/03/29 10:29:12;;;;;;;36.40;23.35;;;;;;;;;;4948479;28;99244;-63
2022/03/29 10:31:47;;;;;;;42.90;24.40;;;;;;;;;;4936971;28;98629;-62
2022/03/29 10:34:17;;;;;;;44.08;24.35;;;;;;;;;;4930855;28;97759;-63
2022/03/29 10:36:59;;;;;;;44.03;24.98;;;;;;;;;;4945366;28;98537;-63
2022/03/29 10:39:45;;;;;;;41.78;25.17;;;;;;;;;;4950080;28;98678;-62
2022/03/29 10:42:27;;;;;;;41.40;25.00;;;;;;;;;;4949183;28;99470;-63
2022/03/29 10:44:57;;;;;;;40.63;23.95;;;;;;;;;;4949171;28;100591;-63
2022/03/29 10:47:46;;;;;;;43.35;24.30;;;;;;;;;;4949270;28;98601;-65
2022/03/29 10:50:13;;;;;;;39.17;24.75;;;;;;;;;;4949145;28;99286;-63
2022/03/29 10:52:46;;;;;;;39.37;23.90;;;;;;;;;;4949381;28;99565;-64
2022/03/29 10:55:13;;;;;;;;;;;;;;;;;;4948909;28;100247;-64
2022/03/29 10:57:39;;;;;;;37.60;24.13;;;;;;;;;;4951165;28;129515;-64
2022/03/29 11:00:10;;;;;;;47.20;23.73;;;;;;;;;;4953044;28;99828;-64
2022/03/29 11:02:37;;;;;;;38.85;23.73;;;;;;;;;;4949846;28;98699;-64
2022/03/29 11:05:03;;;;;;;40.70;23.25;;;;;;;;;;4948267;28;99552;-64
2022/03/29 11:07:31;;;;;;;34.20;22.70;;;;;;;;;;4948588;28;99562;-64
2022/03/29 11:10:06;;;;;;;36.55;22.75;;;;;;;;;;4949619;28;99983;-64
2022/03/29 11:12:38;;;;;;;42.05;21.08;;;;;;;;;;4948982;28;99530;-64
2022/03/29 11:15:23;;;;;;;29.45;21.92;;;;;;;;;;4946648;28;98909;-64
2022/03/29 11:17:52;;;;;;;37.38;21.88;;;;;;;;;;4948103;28;99366;-63
2022/03/29 11:20:32;;;;;;;37.43;21.20;;;;;;;;;;4946401;28;100543;-64
2022/03/29 11:23:00;;;;;;;33.47;21.52;;;;;;;;;;4944297;28;98897;-64
2022/03/29 11:25:27;;;;;;;33.78;20.70;;;;;;;;;;4949502;28;98890;-64
2022/03/29 11:28:03;;;;;;;36.67;21.60;;;;;;;;;;4950285;28;98569;-64
2022/03/29 11:30:29;;;;;;;33.15;21.52;;;;;;;;;;4946113;28;99093;-64
2022/03/29 11:32:57;;;;;;;34.95;20.10;;;;;;;;;;4950559;28;100257;-63
2022/03/29 11:35:26;;;;;;;28.60;20.08;;;;;;;;;;4950054;28;100182;-64
2022/03/29 11:37:53;;;;;;;40.45;22.15;;;;;;;;;;4952210;28;99587;-64
2022/03/29 11:40:20;;;;;;;34.90;22.15;;;;;;;;;;4952382;28;100590;-64
2022/03/29 11:42:49;;;;;;;39.00;20.98;;;;;;;;;;4955497;28;98577;-64
2022/03/29 11:45:16;;;;;;;34.30;21.90;;;;;;;;;;4951819;28;100600;-64
2022/03/29 11:47:53;;;;;;;34.30;21.25;;;;;;;;;;4952200;28;98502;-64
2022/03/29 11:50:30;;;;;;;31.17;21.58;;;;;;;;;;4951244;28;99324;-64
2022/03/29 11:52:57;;;;;;;35.05;20.88;;;;;;;;;;4951346;28;99494;-64
2022/03/29 11:55:29;;;;;;;31.30;20.38;;;;;;;;;;4952140;28;98657;-64
2022/03/29 11:57:56;;;;;;;32.83;20.92;;;;;;;;;;4951700;28;99365;-65
2022/03/29 12:00:23;;;;;;;28.60;20.05;;;;;;;;;;4951804;28;100570;-64
2022/03/29 12:02:50;;;;;;;35.28;20.83;;;;;;;;;;4951854;28;98563;-64
2022/03/29 12:05:23;;;;;;;31.83;20.52;;;;;;;;;;4954447;28;99245;-65
2022/03/29 12:08:04;;;;;;;35.75;21.35;;;;;;;;;;4951902;28;98661;-65
2022/03/29 12:10:32;;;;;;;31.10;20.00;;;;;;;;;;4951866;28;99394;-64
2022/03/29 12:12:58;;;;;;;33.63;19.60;;;;;;;;;;4950816;28;99882;-65
2022/03/29 12:15:24;;;;;;;30.63;18.50;;;;;;;;;;4948432;28;97854;-64
2022/03/29 12:18:40;;;;;;;32.65;20.10;;;;;;;;;;4951303;28;99439;-64
2022/03/29 12:20:45;;;;;;;31.83;19.83;;;;;;;;;;4951284;28;100574;-64
2022/03/29 12:23:29;;;;;;;34.65;19.95;;;;;;;;;;4950629;28;99433;-65
2022/03/29 12:25:55;;;;;;;29.50;19.20;;;;;;;;;;4951632;28;100107;-64
2022/03/29 12:28:23;;;;;;;35.17;19.27;;;;;;;;;;4954480;28;99723;-65
2022/03/29 12:30:50;;;;;;;30.55;18.75;;;;;;;;;;4950532;28;99435;-64
2022/03/29 12:33:16;;;;;;;25.13;18.85;;;;;;;;;;4950359;28;99467;-64
2022/03/29 12:35:42;;;;;;;27.35;18.30;;;;;;;;;;4951083;28;98604;-64
2022/03/29 12:38:10;;;;;;;27.95;18.30;;;;;;;;;;4950668;28;99605;-64
2022/03/29 12:40:37;;;;;;;31.55;18.63;;;;;;;;;;4950378;28;99899;-64
2022/03/29 12:43:07;;;;;;;25.42;18.60;;;;;;;;;;4948466;28;98909;-65
2022/03/29 12:45:40;;;;;;;26.38;18.00;;;;;;;;;;4961869;28;99292;-65
2022/03/29 12:48:06;;;;;;;24.83;15.98;;;;;;;;;;4948511;28;100592;-65
2022/03/29 12:50:33;;;;;;;24.55;15.98;;;;;;;;;;4953259;28;99027;-65
2022/03/29 12:53:09;;;;;;;24.13;15.40;;;;;;;;;;4950636;28;99620;-64
2022/03/29 12:55:35;;;;;;;26.60;16.02;;;;;;;;;;4950881;28;98606;-64
2022/03/29 12:58:02;;;;;;;33.05;17.35;;;;;;;;;;4949427;28;99062;-64
2022/03/29 13:00:36;;;;;;;20.58;16.52;;;;;;;;;;4948313;28;100638;-64
2022/03/29 13:03:08;;;;;;;23.25;16.35;;;;;;;;;;4950642;28;98777;-64
2022/03/29 13:05:55;;;;;;;36.45;16.92;;;;;;;;;;4950121;28;101546;-64
2022/03/29 13:08:22;;;;;;;27.58;17.80;;;;;;;;;;4950042;28;99496;-64
2022/03/29 13:10:51;;;;;;;25.48;16.23;;;;;;;;;;4949962;28;98689;-63
2022/03/29 13:13:28;;;;;;;29.27;15.65;;;;;;;;;;4951842;28;99452;-64
2022/03/29 13:16:00;;;;;;;27.58;16.80;;;;;;;;;;4949808;28;98617;-63
2022/03/29 13:18:32;;;;;;;22.67;15.90;;;;;;;;;;4950036;28;99251;-64
2022/03/29 13:21:20;;;;;;;27.55;16.42;;;;;;;;;;4950043;28;99146;-65
2022/03/29 13:24:15;;;;;;;25.25;15.40;;;;;;;;;;4950955;28;98563;-64
2022/03/29 13:26:43;;;;;;;23.67;14.85;;;;;;;;;;4950362;28;100454;-63
2022/03/29 13:29:10;;;;;;;29.30;15.55;;;;;;;;;;4949572;28;99398;-64
2022/03/29 13:31:37;;;;;;;18.52;14.35;;;;;;;;;;4949252;28;97830;-64
2022/03/29 13:34:04;;;;;;;22.33;15.38;;;;;;;;;;4950306;28;98473;-64
2022/03/29 13:36:31;;;;;;;25.70;14.77;;;;;;;;;;4953449;28;99756;-64
2022/03/29 13:38:58;;;;;;;25.42;14.68;;;;;;;;;;4949202;28;99456;-65
2022/03/29 13:41:26;;;;;;;19.33;13.55;;;;;;;;;;4949781;28;99660;-64
2022/03/29 13:43:52;;;;;;;26.92;15.40;;;;;;;;;;4950304;28;98581;-64
2022/03/29 13:46:21;;;;;;;24.40;14.80;;;;;;;;;;4950012;28;99201;-64
2022/03/29 13:49:05;;;;;;;24.45;14.77;;;;;;;;;;4946953;28;99621;-64
2022/03/29 13:51:31;;;;;;;26.17;15.40;;;;;;;;;;4950349;28;98641;-64
2022/03/29 13:53:58;;;;;;;32.67;16.67;;;;;;;;;;4948893;28;100271;-64
2022/03/29 13:56:31;;;;;;;31.83;16.23;;;;;;;;;;4952997;28;99758;-63
2022/03/29 13:58:58;;;;;;;25.05;15.68;;;;;;;;;;4950376;28;98585;-63
2022/03/29 14:01:25;;;;;;;22.58;14.73;;;;;;;;;;4949515;28;99582;-63
2022/03/29 14:03:52;;;;;;;27.33;14.23;;;;;;;;;;4949272;28;99506;-64
2022/03/29 14:06:19;;;;;;;22.90;13.88;;;;;;;;;;4949437;28;99728;-64
2022/03/29 14:08:46;;;;;;;26.00;14.73;;;;;;;;;;4948271;28;99492;-64
2022/03/29 14:11:12;;;;;;;25.83;14.93;;;;;;;;;;4949684;28;98607;-64
2022/03/29 14:13:41;;;;;;;21.58;14.48;;;;;;;;;;4949041;28;99368;-64
2022/03/29 14:16:08;;;;;;;21.95;13.73;;;;;;;;;;4949294;28;99609;-63
2022/03/29 14:18:34;;;;;;;23.63;13.77;;;;;;;;;;4953220;28;98532;-63
2022/03/29 14:21:01;;;;;;;17.85;12.25;;;;;;;;;;4948926;28;99191;-63
2022/03/29 14:23:27;;;;;;;19.95;11.82;;;;;;;;;;4950584;28;98520;-64
2022/03/29 14:25:54;;;;;;;22.08;12.20;;;;;;;;;;4949438;28;99249;-63
2022/03/29 14:28:22;;;;;;;26.30;13.70;;;;;;;;;;4947857;28;101243;-63
2022/03/29 14:30:50;;;;;;;25.65;15.10;;;;;;;;;;4949295;28;98595;-64